sensor_id;sensor_type;location;lat;lon;timestamp;pressure;altitude;pressure_sealevel;temperature;humidity
77288;BME280;66345;42.694;23.346;2024-02-16T00:01:06;96136.50;;;2.89;68.64
77288;BME280;66345;42.694;23.346;2024-02-16T00:03:31;96144.94;;;2.93;68.46
77288;BME280;66345;42.694;23.346;2024-02-16T00:05:57;96143.13;;;2.93;68.58
77288;BME280;66345;42.694;23.346;2024-02-16T00:08:22;96136.03;;;2.84;68.65
77288;BME280;66345;42.694;23.346;2024-02-16T00:10:48;96132.88;;;2.69;69.05
77288;BME280;66345;42.694;23.346;2024-02-16T00:13:14;96135.25;;;2.72;69.52
77288;BME280;66345;42.694;23.346;2024-02-16T00:15:42;96142.66;;;2.67;69.52
77288;BME280;66345;42.694;23.346;2024-02-16T00:18:07;96149.75;;;2.44;70.79
77288;BME280;66345;42.694;23.346;2024-02-16T00:20:33;96154.63;;;2.38;70.84
77288;BME280;66345;42.694;23.346;2024-02-16T00:22:59;96149.28;;;2.28;70.81
77288;BME280;66345;42.694;23.346;2024-02-16T00:25:25;96151.09;;;2.16;71.69
77288;BME280;66345;42.694;23.346;2024-02-16T00:27:51;96159.56;;;1.98;72.40
77288;BME280;66345;42.694;23.346;2024-02-16T00:30:22;96152.88;;;1.93;73.00
77288;BME280;66345;42.694;23.346;2024-02-16T00:32:47;96150.84;;;2.08;72.53
77288;BME280;66345;42.694;23.346;2024-02-16T00:35:15;96142.31;;;2.06;71.76
77288;BME280;66345;42.694;23.346;2024-02-16T00:37:42;96153.13;;;2.13;71.97
77288;BME280;66345;42.694;23.346;2024-02-16T00:40:08;96153.47;;;2.19;72.59
77288;BME280;66345;42.694;23.346;2024-02-16T00:42:34;96152.34;;;2.33;71.76
77288;BME280;66345;42.694;23.346;2024-02-16T00:44:59;96147.72;;;2.37;71.11
77288;BME280;66345;42.694;23.346;2024-02-16T00:47:29;96153.03;;;2.58;70.13
77288;BME280;66345;42.694;23.346;2024-02-16T00:49:54;96152.78;;;2.61;70.50
77288;BME280;66345;42.694;23.346;2024-02-16T00:52:21;96132.44;;;2.53;69.65
77288;BME280;66345;42.694;23.346;2024-02-16T00:54:48;96154.97;;;2.33;70.17
77288;BME280;66345;42.694;23.346;2024-02-16T00:57:13;96153.53;;;2.40;69.74
77288;BME280;66345;42.694;23.346;2024-02-16T00:59:40;96143.50;;;2.57;69.42
77288;BME280;66345;42.694;23.346;2024-02-16T01:02:05;96150.38;;;2.69;69.12
77288;BME280;66345;42.694;23.346;2024-02-16T01:04:32;96149.06;;;2.74;68.62
77288;BME280;66345;42.694;23.346;2024-02-16T01:06:58;96154.44;;;2.73;68.18
77288;BME280;66345;42.694;23.346;2024-02-16T01:09:24;96154.22;;;2.54;69.34
77288;BME280;66345;42.694;23.346;2024-02-16T01:11:49;96151.88;;;2.50;69.65
77288;BME280;66345;42.694;23.346;2024-02-16T01:14:15;96148.16;;;2.53;69.69
77288;BME280;66345;42.694;23.346;2024-02-16T01:16:40;96144.72;;;2.41;69.05
77288;BME280;66345;42.694;23.346;2024-02-16T01:19:06;96150.31;;;2.48;69.22
77288;BME280;66345;42.694;23.346;2024-02-16T01:21:33;96126.63;;;2.49;68.67
77288;BME280;66345;42.694;23.346;2024-02-16T01:23:58;96149.59;;;2.57;68.36
77288;BME280;66345;42.694;23.346;2024-02-16T01:26:26;96145.31;;;2.45;69.32
77288;BME280;66345;42.694;23.346;2024-02-16T01:28:52;96140.44;;;2.40;70.01
77288;BME280;66345;42.694;23.346;2024-02-16T01:31:17;96138.13;;;2.15;70.12
77288;BME280;66345;42.694;23.346;2024-02-16T01:33:43;96136.81;;;2.20;69.63
77288;BME280;66345;42.694;23.346;2024-02-16T01:36:08;96119.81;;;1.92;70.40
77288;BME280;66345;42.694;23.346;2024-02-16T01:38:33;96132.78;;;1.83;71.21
77288;BME280;66345;42.694;23.346;2024-02-16T01:41:00;96136.34;;;1.71;72.30
77288;BME280;66345;42.694;23.346;2024-02-16T01:43:26;96120.06;;;1.56;72.21
77288;BME280;66345;42.694;23.346;2024-02-16T01:45:52;96133.84;;;1.80;72.54
77288;BME280;66345;42.694;23.346;2024-02-16T01:48:18;96135.16;;;1.86;71.61
77288;BME280;66345;42.694;23.346;2024-02-16T01:50:44;96126.97;;;1.90;71.91
77288;BME280;66345;42.694;23.346;2024-02-16T01:53:11;96134.22;;;1.98;71.58
77288;BME280;66345;42.694;23.346;2024-02-16T01:55:38;96123.03;;;2.07;70.72
77288;BME280;66345;42.694;23.346;2024-02-16T01:58:04;96119.59;;;1.84;71.76
77288;BME280;66345;42.694;23.346;2024-02-16T02:00:29;96105.78;;;1.71;72.45
77288;BME280;66345;42.694;23.346;2024-02-16T02:02:55;96122.09;;;1.52;72.88
77288;BME280;66345;42.694;23.346;2024-02-16T02:05:22;96125.28;;;1.56;73.19
77288;BME280;66345;42.694;23.346;2024-02-16T02:07:48;96122.78;;;1.88;72.53
77288;BME280;66345;42.694;23.346;2024-02-16T02:10:13;96129.09;;;1.97;71.63
77288;BME280;66345;42.694;23.346;2024-02-16T02:12:39;96132.06;;;2.03;71.65
77288;BME280;66345;42.694;23.346;2024-02-16T02:15:05;96127.31;;;1.97;71.92
77288;BME280;66345;42.694;23.346;2024-02-16T02:17:31;96127.91;;;1.78;72.37
77288;BME280;66345;42.694;23.346;2024-02-16T02:19:56;96127.19;;;1.65;72.63
77288;BME280;66345;42.694;23.346;2024-02-16T02:22:22;96125.91;;;1.59;72.81
77288;BME280;66345;42.694;23.346;2024-02-16T02:24:48;96105.91;;;1.47;73.08
77288;BME280;66345;42.694;23.346;2024-02-16T02:27:16;96130.50;;;1.56;73.24
77288;BME280;66345;42.694;23.346;2024-02-16T02:29:42;96129.22;;;1.73;73.39
77288;BME280;66345;42.694;23.346;2024-02-16T02:32:09;96134.56;;;1.60;74.09
77288;BME280;66345;42.694;23.346;2024-02-16T02:34:35;96123.03;;;1.74;72.66
77288;BME280;66345;42.694;23.346;2024-02-16T02:37:02;96128.13;;;1.42;73.32
77288;BME280;66345;42.694;23.346;2024-02-16T02:39:29;96133.84;;;1.58;73.78
77288;BME280;66345;42.694;23.346;2024-02-16T02:41:54;96119.81;;;1.48;74.29
77288;BME280;66345;42.694;23.346;2024-02-16T02:44:20;96130.47;;;1.33;74.42
77288;BME280;66345;42.694;23.346;2024-02-16T02:46:45;96121.19;;;1.07;75.18
77288;BME280;66345;42.694;23.346;2024-02-16T02:49:11;96134.44;;;0.93;76.49
77288;BME280;66345;42.694;23.346;2024-02-16T02:51:36;96139.22;;;1.10;76.71
77288;BME280;66345;42.694;23.346;2024-02-16T02:54:02;96128.69;;;1.23;75.56
77288;BME280;66345;42.694;23.346;2024-02-16T02:56:27;96127.53;;;1.38;74.84
77288;BME280;66345;42.694;23.346;2024-02-16T02:58:53;96127.16;;;1.31;75.39
77288;BME280;66345;42.694;23.346;2024-02-16T03:01:18;96131.22;;;1.47;75.38
77288;BME280;66345;42.694;23.346;2024-02-16T03:03:46;96121.72;;;1.57;73.83
77288;BME280;66345;42.694;23.346;2024-02-16T03:06:12;96129.72;;;1.09;74.58
77288;BME280;66345;42.694;23.346;2024-02-16T03:08:37;96131.69;;;0.94;76.10
77288;BME280;66345;42.694;23.346;2024-02-16T03:11:03;96126.63;;;1.04;76.49
77288;BME280;66345;42.694;23.346;2024-02-16T03:13:30;96127.94;;;1.21;75.27
77288;BME280;66345;42.694;23.346;2024-02-16T03:15:56;96122.53;;;0.89;75.95
77288;BME280;66345;42.694;23.346;2024-02-16T03:18:22;96132.03;;;0.90;76.68
77288;BME280;66345;42.694;23.346;2024-02-16T03:20:48;96122.97;;;0.82;77.50
77288;BME280;66345;42.694;23.346;2024-02-16T03:23:15;96130.34;;;0.77;77.54
77288;BME280;66345;42.694;23.346;2024-02-16T03:25:41;96133.03;;;1.00;76.93
77288;BME280;66345;42.694;23.346;2024-02-16T03:28:11;96126.53;;;1.28;75.29
77288;BME280;66345;42.694;23.346;2024-02-16T03:30:37;96130.00;;;1.28;75.36
77288;BME280;66345;42.694;23.346;2024-02-16T03:33:03;96131.47;;;1.44;74.31
77288;BME280;66345;42.694;23.346;2024-02-16T03:35:29;96113.97;;;1.33;73.98
77288;BME280;66345;42.694;23.346;2024-02-16T03:37:54;96135.75;;;1.45;73.88
77288;BME280;66345;42.694;23.346;2024-02-16T03:40:21;96123.00;;;1.40;74.20
77288;BME280;66345;42.694;23.346;2024-02-16T03:42:47;96139.78;;;1.49;73.43
77288;BME280;66345;42.694;23.346;2024-02-16T03:45:13;96134.53;;;1.37;73.55
77288;BME280;66345;42.694;23.346;2024-02-16T03:47:42;96128.56;;;1.24;74.61
77288;BME280;66345;42.694;23.346;2024-02-16T03:50:08;96133.34;;;1.30;74.07
77288;BME280;66345;42.694;23.346;2024-02-16T03:52:33;96135.34;;;1.27;74.47
77288;BME280;66345;42.694;23.346;2024-02-16T03:54:59;96130.97;;;1.38;74.21
77288;BME280;66345;42.694;23.346;2024-02-16T03:57:25;96133.81;;;1.35;74.37
77288;BME280;66345;42.694;23.346;2024-02-16T03:59:51;96130.34;;;1.24;73.88
77288;BME280;66345;42.694;23.346;2024-02-16T04:02:17;96123.81;;;1.18;74.63
77288;BME280;66345;42.694;23.346;2024-02-16T04:04:42;96132.16;;;1.34;74.03
77288;BME280;66345;42.694;23.346;2024-02-16T04:07:08;96121.09;;;1.31;73.70
77288;BME280;66345;42.694;23.346;2024-02-16T04:09:34;96132.75;;;1.49;73.42
77288;BME280;66345;42.694;23.346;2024-02-16T04:12:00;96126.72;;;1.60;72.32
77288;BME280;66345;42.694;23.346;2024-02-16T04:14:26;96128.16;;;1.53;72.36
77288;BME280;66345;42.694;23.346;2024-02-16T04:16:52;96131.72;;;1.63;71.82
77288;BME280;66345;42.694;23.346;2024-02-16T04:19:17;96113.41;;;1.63;71.99
77288;BME280;66345;42.694;23.346;2024-02-16T04:21:43;96127.44;;;1.62;71.45
77288;BME280;66345;42.694;23.346;2024-02-16T04:24:09;96130.50;;;1.56;71.52
77288;BME280;66345;42.694;23.346;2024-02-16T04:26:34;96131.22;;;1.58;72.18
77288;BME280;66345;42.694;23.346;2024-02-16T04:29:00;96131.22;;;1.58;71.80
77288;BME280;66345;42.694;23.346;2024-02-16T04:31:25;96139.19;;;1.45;72.14
77288;BME280;66345;42.694;23.346;2024-02-16T04:33:51;96131.56;;;1.31;73.33
77288;BME280;66345;42.694;23.346;2024-02-16T04:36:18;96137.41;;;1.46;72.73
77288;BME280;66345;42.694;23.346;2024-02-16T04:38:43;96133.84;;;1.47;72.18
77288;BME280;66345;42.694;23.346;2024-02-16T04:41:09;96136.16;;;1.27;73.53
77288;BME280;66345;42.694;23.346;2024-02-16T04:43:34;96120.59;;;1.26;72.98
77288;BME280;66345;42.694;23.346;2024-02-16T04:46:00;96138.19;;;1.35;72.74
77288;BME280;66345;42.694;23.346;2024-02-16T04:48:26;96147.38;;;1.41;72.82
77288;BME280;66345;42.694;23.346;2024-02-16T04:50:51;96131.81;;;1.39;72.11
77288;BME280;66345;42.694;23.346;2024-02-16T04:53:17;96144.06;;;1.50;72.07
77288;BME280;66345;42.694;23.346;2024-02-16T04:55:45;96136.91;;;1.29;72.57
77288;BME280;66345;42.694;23.346;2024-02-16T04:58:10;96144.88;;;1.39;72.37
77288;BME280;66345;42.694;23.346;2024-02-16T05:00:39;96153.44;;;1.30;72.69
77288;BME280;66345;42.694;23.346;2024-02-16T05:03:04;96162.09;;;1.30;72.16
77288;BME280;66345;42.694;23.346;2024-02-16T05:05:30;96155.66;;;1.34;72.18
77288;BME280;66345;42.694;23.346;2024-02-16T05:07:56;96164.97;;;1.38;72.41
77288;BME280;66345;42.694;23.346;2024-02-16T05:10:22;96161.16;;;1.43;71.64
77288;BME280;66345;42.694;23.346;2024-02-16T05:12:48;96151.91;;;1.38;71.74
77288;BME280;66345;42.694;23.346;2024-02-16T05:15:13;96171.97;;;1.38;72.36
77288;BME280;66345;42.694;23.346;2024-02-16T05:17:39;96169.09;;;1.30;71.80
77288;BME280;66345;42.694;23.346;2024-02-16T05:20:14;96168.50;;;1.26;72.69
77288;BME280;66345;42.694;23.346;2024-02-16T05:22:45;96167.66;;;1.26;72.19
77288;BME280;66345;42.694;23.346;2024-02-16T05:25:15;96181.00;;;1.34;72.47
77288;BME280;66345;42.694;23.346;2024-02-16T05:27:41;96174.22;;;1.31;72.06
77288;BME280;66345;42.694;23.346;2024-02-16T05:30:09;96173.59;;;1.28;71.71
77288;BME280;66345;42.694;23.346;2024-02-16T05:32:35;96184.88;;;1.17;71.83
77288;BME280;66345;42.694;23.346;2024-02-16T05:35:06;96187.16;;;1.33;72.11
77288;BME280;66345;42.694;23.346;2024-02-16T05:37:48;96183.47;;;1.35;72.83
77288;BME280;66345;42.694;23.346;2024-02-16T05:40:17;96180.97;;;1.23;72.67
77288;BME280;66345;42.694;23.346;2024-02-16T05:42:57;96197.44;;;1.12;72.95
77288;BME280;66345;42.694;23.346;2024-02-16T05:45:23;96171.84;;;0.93;73.49
77288;BME280;66345;42.694;23.346;2024-02-16T05:47:49;96188.50;;;1.03;73.49
77288;BME280;66345;42.694;23.346;2024-02-16T05:50:15;96185.31;;;1.11;73.62
77288;BME280;66345;42.694;23.346;2024-02-16T05:52:42;96181.19;;;1.20;72.70
77288;BME280;66345;42.694;23.346;2024-02-16T05:55:08;96194.44;;;1.41;72.66
77288;BME280;66345;42.694;23.346;2024-02-16T05:57:35;96198.00;;;1.39;72.71
77288;BME280;66345;42.694;23.346;2024-02-16T06:00:01;96195.19;;;1.54;72.36
77288;BME280;66345;42.694;23.346;2024-02-16T06:02:30;96197.66;;;1.44;72.74
77288;BME280;66345;42.694;23.346;2024-02-16T06:04:55;96195.16;;;1.43;72.89
77288;BME280;66345;42.694;23.346;2024-02-16T06:07:21;96192.31;;;1.46;73.38
77288;BME280;66345;42.694;23.346;2024-02-16T06:09:47;96191.75;;;1.64;72.31
77288;BME280;66345;42.694;23.346;2024-02-16T06:12:12;96193.78;;;1.72;71.83
77288;BME280;66345;42.694;23.346;2024-02-16T06:14:38;96184.88;;;1.86;71.37
77288;BME280;66345;42.694;23.346;2024-02-16T06:17:04;96190.00;;;1.99;71.10
77288;BME280;66345;42.694;23.346;2024-02-16T06:19:30;96199.63;;;2.32;70.11
77288;BME280;66345;42.694;23.346;2024-02-16T06:21:55;96186.88;;;2.49;68.55
77288;BME280;66345;42.694;23.346;2024-02-16T06:24:22;96194.56;;;3.05;67.29
77288;BME280;66345;42.694;23.346;2024-02-16T06:26:48;96191.28;;;3.45;66.18
77288;BME280;66345;42.694;23.346;2024-02-16T06:29:14;96187.50;;;3.38;66.41
77288;BME280;66345;42.694;23.346;2024-02-16T06:31:39;96183.88;;;4.32;63.37
77288;BME280;66345;42.694;23.346;2024-02-16T06:34:05;96185.63;;;4.62;61.66
77288;BME280;66345;42.694;23.346;2024-02-16T06:36:30;96168.66;;;5.53;58.24
77288;BME280;66345;42.694;23.346;2024-02-16T06:38:56;96180.47;;;5.87;56.82
77288;BME280;66345;42.694;23.346;2024-02-16T06:41:21;96182.09;;;5.31;58.34
77288;BME280;66345;42.694;23.346;2024-02-16T06:43:47;96181.59;;;5.84;57.58
77288;BME280;66345;42.694;23.346;2024-02-16T06:46:12;96179.59;;;7.15;53.77
77288;BME280;66345;42.694;23.346;2024-02-16T06:48:38;96183.13;;;5.96;55.72
77288;BME280;66345;42.694;23.346;2024-02-16T06:51:03;96185.69;;;6.80;54.38
77288;BME280;66345;42.694;23.346;2024-02-16T06:53:29;96175.41;;;6.77;53.31
77288;BME280;66345;42.694;23.346;2024-02-16T06:55:54;96170.81;;;7.68;51.91
77288;BME280;66345;42.694;23.346;2024-02-16T06:58:20;96173.06;;;7.19;51.87
77288;BME280;66345;42.694;23.346;2024-02-16T07:00:45;96185.63;;;6.35;54.71
77288;BME280;66345;42.694;23.346;2024-02-16T07:03:11;96186.91;;;6.58;54.11
77288;BME280;66345;42.694;23.346;2024-02-16T07:05:37;96168.19;;;6.24;55.78
77288;BME280;66345;42.694;23.346;2024-02-16T07:08:04;96183.31;;;5.56;57.14
77288;BME280;66345;42.694;23.346;2024-02-16T07:10:31;96187.81;;;6.02;56.80
77288;BME280;66345;42.694;23.346;2024-02-16T07:12:57;96192.31;;;6.29;56.24
77288;BME280;66345;42.694;23.346;2024-02-16T07:15:22;96176.19;;;6.05;55.89
77288;BME280;66345;42.694;23.346;2024-02-16T07:17:48;96173.34;;;7.34;52.79
77288;BME280;66345;42.694;23.346;2024-02-16T07:20:13;96150.31;;;9.88;46.33
77288;BME280;66345;42.694;23.346;2024-02-16T07:22:40;96132.91;;;11.43;41.42
77288;BME280;66345;42.694;23.346;2024-02-16T07:25:07;96129.59;;;12.16;39.42
77288;BME280;66345;42.694;23.346;2024-02-16T07:27:34;96141.19;;;12.38;39.99
77288;BME280;66345;42.694;23.346;2024-02-16T07:29:59;96144.72;;;12.74;38.42
77288;BME280;66345;42.694;23.346;2024-02-16T07:32:25;96137.50;;;12.54;38.08
77288;BME280;66345;42.694;23.346;2024-02-16T07:38:28;96159.34;;;14.22;35.28
77288;BME280;66345;42.694;23.346;2024-02-16T07:41:31;96160.22;;;13.37;36.57
77288;BME280;66345;42.694;23.346;2024-02-16T07:44:06;96153.91;;;14.08;34.89
77288;BME280;66345;42.694;23.346;2024-02-16T07:46:32;96153.91;;;14.08;35.09
77288;BME280;66345;42.694;23.346;2024-02-16T07:48:57;96165.88;;;14.19;35.42
77288;BME280;66345;42.694;23.346;2024-02-16T07:51:24;96158.56;;;14.97;33.65
77288;BME280;66345;42.694;23.346;2024-02-16T07:53:49;96149.94;;;16.35;31.41
77288;BME280;66345;42.694;23.346;2024-02-16T07:56:15;96155.03;;;16.63;30.67
77288;BME280;66345;42.694;23.346;2024-02-16T07:58:41;96164.53;;;16.53;30.24
77288;BME280;66345;42.694;23.346;2024-02-16T08:01:11;96163.34;;;16.02;31.07
77288;BME280;66345;42.694;23.346;2024-02-16T08:03:41;96163.69;;;16.72;30.11
77288;BME280;66345;42.694;23.346;2024-02-16T08:06:07;96161.69;;;17.51;29.03
77288;BME280;66345;42.694;23.346;2024-02-16T08:08:32;96163.00;;;17.41;29.09
77288;BME280;66345;42.694;23.346;2024-02-16T08:10:58;96165.09;;;16.68;29.74
77288;BME280;66345;42.694;23.346;2024-02-16T08:13:23;96167.03;;;16.28;30.21
77288;BME280;66345;42.694;23.346;2024-02-16T08:15:49;96179.63;;;15.20;32.38
77288;BME280;66345;42.694;23.346;2024-02-16T08:18:17;96167.25;;;15.73;31.72
77288;BME280;66345;42.694;23.346;2024-02-16T08:20:43;96161.97;;;17.42;29.36
77288;BME280;66345;42.694;23.346;2024-02-16T08:23:08;96154.22;;;18.41;27.65
77288;BME280;66345;42.694;23.346;2024-02-16T08:25:34;96159.47;;;18.79;27.24
77288;BME280;66345;42.694;23.346;2024-02-16T08:27:59;96155.19;;;18.03;27.75
77288;BME280;66345;42.694;23.346;2024-02-16T08:30:25;96170.84;;;17.81;28.41
77288;BME280;66345;42.694;23.346;2024-02-16T08:32:51;96169.94;;;16.20;30.43
77288;BME280;66345;42.694;23.346;2024-02-16T08:35:16;96175.06;;;15.88;31.03
77288;BME280;66345;42.694;23.346;2024-02-16T08:37:44;96178.91;;;15.59;31.44
77288;BME280;66345;42.694;23.346;2024-02-16T08:40:12;96166.97;;;16.54;30.02
77288;BME280;66345;42.694;23.346;2024-02-16T08:42:40;96163.22;;;17.78;28.79
77288;BME280;66345;42.694;23.346;2024-02-16T08:45:07;96159.97;;;16.53;30.30
77288;BME280;66345;42.694;23.346;2024-02-16T08:47:33;96157.13;;;17.58;29.17
77288;BME280;66345;42.694;23.346;2024-02-16T08:49:58;96161.16;;;16.90;30.16
77288;BME280;66345;42.694;23.346;2024-02-16T08:52:24;96164.06;;;16.89;30.36
77288;BME280;66345;42.694;23.346;2024-02-16T08:54:49;96164.22;;;17.01;30.53
77288;BME280;66345;42.694;23.346;2024-02-16T08:57:15;96172.75;;;16.78;30.49
77288;BME280;66345;42.694;23.346;2024-02-16T08:59:40;96164.28;;;16.68;31.07
77288;BME280;66345;42.694;23.346;2024-02-16T09:02:06;96157.59;;;17.86;28.78
77288;BME280;66345;42.694;23.346;2024-02-16T09:04:31;96172.69;;;16.98;30.10
77288;BME280;66345;42.694;23.346;2024-02-16T09:06:57;96166.97;;;16.61;30.39
77288;BME280;66345;42.694;23.346;2024-02-16T09:09:22;96162.59;;;18.08;28.79
77288;BME280;66345;42.694;23.346;2024-02-16T09:11:48;96160.06;;;19.48;26.68
77288;BME280;66345;42.694;23.346;2024-02-16T09:14:14;96154.03;;;20.59;24.94
77288;BME280;66345;42.694;23.346;2024-02-16T09:16:39;96163.91;;;19.58;26.31
77288;BME280;66345;42.694;23.346;2024-02-16T09:19:05;96170.47;;;19.44;25.73
77288;BME280;66345;42.694;23.346;2024-02-16T09:21:30;96162.19;;;19.76;25.05
77288;BME280;66345;42.694;23.346;2024-02-16T09:23:56;96164.56;;;20.72;23.82
77288;BME280;66345;42.694;23.346;2024-02-16T09:26:27;96169.38;;;19.82;25.17
77288;BME280;66345;42.694;23.346;2024-02-16T09:28:58;96162.09;;;19.34;25.63
77288;BME280;66345;42.694;23.346;2024-02-16T09:31:24;96156.09;;;19.68;25.22
77288;BME280;66345;42.694;23.346;2024-02-16T09:33:52;96166.38;;;18.00;27.32
77288;BME280;66345;42.694;23.346;2024-02-16T09:36:19;96177.44;;;15.43;29.95
77288;BME280;66345;42.694;23.346;2024-02-16T09:38:45;96171.78;;;15.18;31.69
77288;BME280;66345;42.694;23.346;2024-02-16T09:41:10;96166.22;;;16.27;30.15
77288;BME280;66345;42.694;23.346;2024-02-16T09:43:37;96164.31;;;17.26;28.59
77288;BME280;66345;42.694;23.346;2024-02-16T09:46:04;96155.25;;;18.21;27.66
77288;BME280;66345;42.694;23.346;2024-02-16T09:48:30;96151.41;;;19.46;25.99
77288;BME280;66345;42.694;23.346;2024-02-16T09:50:57;96156.88;;;19.57;25.85
77288;BME280;66345;42.694;23.346;2024-02-16T09:53:26;96155.16;;;19.45;26.08
77288;BME280;66345;42.694;23.346;2024-02-16T09:55:52;96152.16;;;19.83;25.66
77288;BME280;66345;42.694;23.346;2024-02-16T09:58:18;96148.63;;;21.23;23.58
77288;BME280;66345;42.694;23.346;2024-02-16T10:00:52;96145.66;;;20.14;24.84
77288;BME280;66345;42.694;23.346;2024-02-16T10:03:29;96144.25;;;20.93;24.02
77288;BME280;66345;42.694;23.346;2024-02-16T10:06:08;96141.06;;;20.03;24.93
77288;BME280;66345;42.694;23.346;2024-02-16T10:08:47;96134.91;;;20.26;24.58
77288;BME280;66345;42.694;23.346;2024-02-16T10:11:16;96119.53;;;20.38;24.75
77288;BME280;66345;42.694;23.346;2024-02-16T10:13:54;96130.84;;;19.51;25.37
77288;BME280;66345;42.694;23.346;2024-02-16T10:16:20;96126.91;;;18.69;26.80
77288;BME280;66345;42.694;23.346;2024-02-16T10:18:46;96125.06;;;17.69;28.46
77288;BME280;66345;42.694;23.346;2024-02-16T10:21:11;96118.50;;;17.59;28.03
77288;BME280;66345;42.694;23.346;2024-02-16T10:23:37;96121.34;;;18.20;28.06
77288;BME280;66345;42.694;23.346;2024-02-16T10:26:03;96116.50;;;19.57;26.18
77288;BME280;66345;42.694;23.346;2024-02-16T10:28:29;96118.88;;;19.47;26.22
77288;BME280;66345;42.694;23.346;2024-02-16T10:31:00;96094.25;;;20.50;24.92
77288;BME280;66345;42.694;23.346;2024-02-16T10:33:33;96099.59;;;20.86;24.31
77288;BME280;66345;42.694;23.346;2024-02-16T10:36:00;96098.63;;;19.56;25.62
77288;BME280;66345;42.694;23.346;2024-02-16T10:38:28;96108.50;;;17.79;28.31
77288;BME280;66345;42.694;23.346;2024-02-16T10:40:56;96094.56;;;20.19;25.72
77288;BME280;66345;42.694;23.346;2024-02-16T10:43:24;96092.94;;;21.05;24.73
77288;BME280;66345;42.694;23.346;2024-02-16T10:45:51;96091.06;;;20.65;24.67
77288;BME280;66345;42.694;23.346;2024-02-16T10:48:18;96100.72;;;19.73;25.73
77288;BME280;66345;42.694;23.346;2024-02-16T10:50:45;96100.59;;;18.71;27.41
77288;BME280;66345;42.694;23.346;2024-02-16T10:53:29;96103.56;;;17.38;29.40
77288;BME280;66345;42.694;23.346;2024-02-16T10:55:58;96099.94;;;17.26;29.46
77288;BME280;66345;42.694;23.346;2024-02-16T10:58:30;96097.00;;;16.96;30.81
77288;BME280;66345;42.694;23.346;2024-02-16T11:00:56;96086.34;;;16.76;30.85
77288;BME280;66345;42.694;23.346;2024-02-16T11:03:26;96088.78;;;16.06;31.62
77288;BME280;66345;42.694;23.346;2024-02-16T11:05:53;96094.34;;;15.58;32.68
77288;BME280;66345;42.694;23.346;2024-02-16T11:08:21;96096.09;;;15.05;34.10
77288;BME280;66345;42.694;23.346;2024-02-16T11:11:00;96096.91;;;15.05;34.04
77288;BME280;66345;42.694;23.346;2024-02-16T11:13:27;96100.41;;;14.58;34.34
77288;BME280;66345;42.694;23.346;2024-02-16T11:16:02;96097.00;;;14.01;35.78
77288;BME280;66345;42.694;23.346;2024-02-16T11:18:32;96095.97;;;13.74;36.04
77288;BME280;66345;42.694;23.346;2024-02-16T11:21:01;96089.44;;;12.76;37.81
77288;BME280;66345;42.694;23.346;2024-02-16T11:23:28;96081.78;;;12.52;39.09
77288;BME280;66345;42.694;23.346;2024-02-16T11:26:04;96088.00;;;12.74;38.90
77288;BME280;66345;42.694;23.346;2024-02-16T11:28:32;96081.97;;;12.50;39.24
77288;BME280;66345;42.694;23.346;2024-02-16T11:30:59;96079.66;;;12.62;38.85
77288;BME280;66345;42.694;23.346;2024-02-16T11:33:25;96071.69;;;12.62;39.05
77288;BME280;66345;42.694;23.346;2024-02-16T11:36:03;96074.22;;;12.05;40.03
77288;BME280;66345;42.694;23.346;2024-02-16T11:38:34;96076.56;;;12.00;40.31
77288;BME280;66345;42.694;23.346;2024-02-16T11:41:05;96072.91;;;12.01;40.66
77288;BME280;66345;42.694;23.346;2024-02-16T11:43:31;96066.84;;;12.07;40.08
77288;BME280;66345;42.694;23.346;2024-02-16T11:46:11;96066.50;;;11.95;40.72
77288;BME280;66345;42.694;23.346;2024-02-16T11:48:37;96061.19;;;11.80;40.83
77288;BME280;66345;42.694;23.346;2024-02-16T11:51:03;96060.84;;;11.75;40.85
77288;BME280;66345;42.694;23.346;2024-02-16T11:53:30;96055.16;;;11.49;41.24
77288;BME280;66345;42.694;23.346;2024-02-16T11:55:56;96051.41;;;11.58;41.38
77288;BME280;66345;42.694;23.346;2024-02-16T11:58:22;96058.16;;;11.46;42.22
77288;BME280;66345;42.694;23.346;2024-02-16T12:00:48;96049.53;;;11.44;42.64
77288;BME280;66345;42.694;23.346;2024-02-16T12:03:25;96055.06;;;11.57;42.08
77288;BME280;66345;42.694;23.346;2024-02-16T12:05:57;96056.44;;;11.67;41.83
77288;BME280;66345;42.694;23.346;2024-02-16T12:08:24;96046.97;;;11.50;41.76
77288;BME280;66345;42.694;23.346;2024-02-16T12:10:50;96043.13;;;11.53;42.24
77288;BME280;66345;42.694;23.346;2024-02-16T12:13:20;96044.59;;;11.70;41.38
77288;BME280;66345;42.694;23.346;2024-02-16T12:15:49;96040.88;;;11.64;42.03
77288;BME280;66345;42.694;23.346;2024-02-16T12:18:22;96037.78;;;11.38;42.58
77288;BME280;66345;42.694;23.346;2024-02-16T12:20:58;96040.09;;;11.18;43.00
77288;BME280;66345;42.694;23.346;2024-02-16T12:23:24;96035.78;;;11.17;43.44
77288;BME280;66345;42.694;23.346;2024-02-16T12:25:49;96036.84;;;11.31;43.49
77288;BME280;66345;42.694;23.346;2024-02-16T12:28:15;96036.91;;;11.60;42.82
77288;BME280;66345;42.694;23.346;2024-02-16T12:30:40;96039.84;;;11.65;42.63
77288;BME280;66345;42.694;23.346;2024-02-16T12:33:06;96029.94;;;11.59;42.82
77288;BME280;66345;42.694;23.346;2024-02-16T12:35:34;96027.66;;;11.56;43.17
77288;BME280;66345;42.694;23.346;2024-02-16T12:38:00;96026.72;;;11.49;43.22
77288;BME280;66345;42.694;23.346;2024-02-16T12:40:25;96025.84;;;11.72;42.34
77288;BME280;66345;42.694;23.346;2024-02-16T12:42:52;96028.28;;;11.44;42.57
77288;BME280;66345;42.694;23.346;2024-02-16T12:45:17;96022.97;;;11.44;42.75
77288;BME280;66345;42.694;23.346;2024-02-16T12:47:43;96025.00;;;11.56;42.28
77288;BME280;66345;42.694;23.346;2024-02-16T12:50:08;96019.25;;;11.82;41.70
77288;BME280;66345;42.694;23.346;2024-02-16T12:52:34;96013.34;;;11.57;42.70
77288;BME280;66345;42.694;23.346;2024-02-16T12:55:05;96015.84;;;11.59;41.80
77288;BME280;66345;42.694;23.346;2024-02-16T12:57:31;96024.69;;;11.89;41.70